Fairville, Pennsylvania
Current Conditions -  °F | °C
As of 2:53 AM on Tuesday 27 Jan 2015 (Local Time) from KSEG Reporting Station
Light Snow Light Snow  
Wind Chill: 18°   Ceiling: 3200
Heat Index: 25°   Visibility: 6mi
Dew Point: 21°   Wind: 6mph
Humidity: 85%   Direction: 330°NNW
Pressure: 29.8"   Gusts: NA
Location:  40.9885°N, 76.9787°W
Report Text: KSEG 270753Z AUTO 33005KT 6SM -SN BR OVC032 M04/M06 A2980 RMK AO2 SLP096 P0000 T10391061
Loading
Personal Weather Stations






























Interactive Weather Map New forecast layout! Learn more

10-Day Weather Forecast

Advertisements
Track Severe Weather on mobile